sensor_id;sensor_type;location;lat;lon;timestamp;P1;durP1;ratioP1;P2;durP2;ratioP2
50717;SDS011;60557;51.350;12.410;2023-03-02T00:02:00;11.40;;;6.57;;
50717;SDS011;60557;51.350;12.410;2023-03-02T00:04:30;11.40;;;6.20;;
50717;SDS011;60557;51.350;12.410;2023-03-02T00:06:57;13.77;;;6.80;;
50717;SDS011;60557;51.350;12.410;2023-03-02T00:09:24;14.38;;;6.40;;
50717;SDS011;60557;51.350;12.410;2023-03-02T00:11:50;12.05;;;6.72;;
50717;SDS011;60557;51.350;12.410;2023-03-02T00:14:18;11.38;;;6.50;;
50717;SDS011;60557;51.350;12.410;2023-03-02T00:16:44;12.68;;;6.15;;
50717;SDS011;60557;51.350;12.410;2023-03-02T00:19:10;13.20;;;6.70;;
50717;SDS011;60557;51.350;12.410;2023-03-02T00:21:36;10.95;;;6.22;;
50717;SDS011;60557;51.350;12.410;2023-03-02T00:24:02;11.65;;;5.88;;
50717;SDS011;60557;51.350;12.410;2023-03-02T00:26:31;14.82;;;6.95;;
50717;SDS011;60557;51.350;12.410;2023-03-02T00:28:57;13.45;;;7.38;;
50717;SDS011;60557;51.350;12.410;2023-03-02T00:31:23;14.90;;;7.18;;
50717;SDS011;60557;51.350;12.410;2023-03-02T00:33:49;14.30;;;6.85;;
50717;SDS011;60557;51.350;12.410;2023-03-02T00:36:21;11.63;;;6.78;;
50717;SDS011;60557;51.350;12.410;2023-03-02T00:38:48;11.93;;;5.05;;
50717;SDS011;60557;51.350;12.410;2023-03-02T00:41:16;11.20;;;6.63;;
50717;SDS011;60557;51.350;12.410;2023-03-02T00:43:44;14.30;;;6.63;;
50717;SDS011;60557;51.350;12.410;2023-03-02T00:46:11;13.85;;;6.95;;
50717;SDS011;60557;51.350;12.410;2023-03-02T00:48:38;15.75;;;7.57;;
50717;SDS011;60557;51.350;12.410;2023-03-02T00:51:04;13.20;;;7.20;;
50717;SDS011;60557;51.350;12.410;2023-03-02T00:53:31;18.35;;;6.82;;
50717;SDS011;60557;51.350;12.410;2023-03-02T00:55:57;16.50;;;7.72;;
50717;SDS011;60557;51.350;12.410;2023-03-02T00:58:24;25.23;;;11.38;;
50717;SDS011;60557;51.350;12.410;2023-03-02T01:00:51;16.30;;;7.20;;
50717;SDS011;60557;51.350;12.410;2023-03-02T01:03:17;20.70;;;8.57;;
50717;SDS011;60557;51.350;12.410;2023-03-02T01:05:43;15.80;;;7.47;;
50717;SDS011;60557;51.350;12.410;2023-03-02T01:08:09;16.27;;;7.22;;
50717;SDS011;60557;51.350;12.410;2023-03-02T01:10:38;15.85;;;7.35;;
50717;SDS011;60557;51.350;12.410;2023-03-02T01:13:07;13.45;;;6.80;;
50717;SDS011;60557;51.350;12.410;2023-03-02T01:15:33;14.65;;;7.45;;
50717;SDS011;60557;51.350;12.410;2023-03-02T01:17:59;13.30;;;7.05;;
50717;SDS011;60557;51.350;12.410;2023-03-02T01:20:26;16.92;;;7.60;;
50717;SDS011;60557;51.350;12.410;2023-03-02T01:22:52;14.13;;;6.80;;
50717;SDS011;60557;51.350;12.410;2023-03-02T01:25:18;13.43;;;6.53;;
50717;SDS011;60557;51.350;12.410;2023-03-02T01:27:46;15.57;;;7.45;;
50717;SDS011;60557;51.350;12.410;2023-03-02T01:30:12;14.23;;;8.38;;
50717;SDS011;60557;51.350;12.410;2023-03-02T01:32:41;16.88;;;7.05;;
50717;SDS011;60557;51.350;12.410;2023-03-02T01:35:07;15.93;;;7.22;;
50717;SDS011;60557;51.350;12.410;2023-03-02T01:37:33;14.13;;;6.90;;
50717;SDS011;60557;51.350;12.410;2023-03-02T01:39:59;15.68;;;6.95;;
50717;SDS011;60557;51.350;12.410;2023-03-02T01:42:33;10.13;;;5.30;;
50717;SDS011;60557;51.350;12.410;2023-03-02T01:45:01;13.88;;;8.00;;
50717;SDS011;60557;51.350;12.410;2023-03-02T01:47:31;17.98;;;7.55;;
50717;SDS011;60557;51.350;12.410;2023-03-02T01:52:23;17.15;;;8.93;;
50717;SDS011;60557;51.350;12.410;2023-03-02T01:54:50;18.13;;;7.50;;
50717;SDS011;60557;51.350;12.410;2023-03-02T01:57:19;18.25;;;7.80;;
50717;SDS011;60557;51.350;12.410;2023-03-02T01:59:49;15.50;;;8.32;;
50717;SDS011;60557;51.350;12.410;2023-03-02T02:02:20;15.25;;;7.47;;
50717;SDS011;60557;51.350;12.410;2023-03-02T02:04:46;18.13;;;9.70;;
50717;SDS011;60557;51.350;12.410;2023-03-02T02:07:13;12.82;;;7.50;;
50717;SDS011;60557;51.350;12.410;2023-03-02T02:09:46;15.82;;;7.28;;
50717;SDS011;60557;51.350;12.410;2023-03-02T02:12:14;15.13;;;8.43;;
50717;SDS011;60557;51.350;12.410;2023-03-02T02:14:41;16.67;;;7.75;;
50717;SDS011;60557;51.350;12.410;2023-03-02T02:17:07;18.10;;;8.52;;
50717;SDS011;60557;51.350;12.410;2023-03-02T02:22:02;15.90;;;8.25;;
50717;SDS011;60557;51.350;12.410;2023-03-02T02:27:03;19.35;;;9.05;;
50717;SDS011;60557;51.350;12.410;2023-03-02T02:29:30;19.98;;;9.07;;
50717;SDS011;60557;51.350;12.410;2023-03-02T02:37:10;18.30;;;8.90;;
50717;SDS011;60557;51.350;12.410;2023-03-02T02:39:40;16.85;;;8.75;;
50717;SDS011;60557;51.350;12.410;2023-03-02T02:42:12;15.40;;;9.27;;
50717;SDS011;60557;51.350;12.410;2023-03-02T02:44:39;18.23;;;9.23;;
50717;SDS011;60557;51.350;12.410;2023-03-02T02:47:18;19.75;;;9.02;;
50717;SDS011;60557;51.350;12.410;2023-03-02T02:49:45;18.23;;;9.60;;
50717;SDS011;60557;51.350;12.410;2023-03-02T02:52:16;21.55;;;9.75;;
50717;SDS011;60557;51.350;12.410;2023-03-02T02:54:44;20.50;;;10.20;;
50717;SDS011;60557;51.350;12.410;2023-03-02T02:57:11;18.23;;;9.55;;
50717;SDS011;60557;51.350;12.410;2023-03-02T03:00:02;16.95;;;9.55;;
50717;SDS011;60557;51.350;12.410;2023-03-02T03:02:29;19.90;;;9.00;;
50717;SDS011;60557;51.350;12.410;2023-03-02T03:04:57;17.40;;;9.57;;
50717;SDS011;60557;51.350;12.410;2023-03-02T03:07:27;16.23;;;8.75;;
50717;SDS011;60557;51.350;12.410;2023-03-02T03:09:55;21.52;;;9.52;;
50717;SDS011;60557;51.350;12.410;2023-03-02T03:12:23;19.08;;;9.20;;
50717;SDS011;60557;51.350;12.410;2023-03-02T03:14:50;22.02;;;10.57;;
50717;SDS011;60557;51.350;12.410;2023-03-02T03:17:20;19.02;;;9.43;;
50717;SDS011;60557;51.350;12.410;2023-03-02T03:19:46;16.95;;;9.60;;
50717;SDS011;60557;51.350;12.410;2023-03-02T03:22:13;21.73;;;10.13;;
50717;SDS011;60557;51.350;12.410;2023-03-02T03:24:42;18.35;;;9.23;;
50717;SDS011;60557;51.350;12.410;2023-03-02T03:27:09;21.67;;;9.60;;
50717;SDS011;60557;51.350;12.410;2023-03-02T03:29:36;17.63;;;9.23;;
50717;SDS011;60557;51.350;12.410;2023-03-02T03:32:03;17.20;;;9.40;;
50717;SDS011;60557;51.350;12.410;2023-03-02T03:34:30;23.98;;;9.05;;
50717;SDS011;60557;51.350;12.410;2023-03-02T03:36:57;18.17;;;9.10;;
50717;SDS011;60557;51.350;12.410;2023-03-02T03:39:29;15.88;;;8.15;;
50717;SDS011;60557;51.350;12.410;2023-03-02T03:41:55;22.83;;;11.35;;
50717;SDS011;60557;51.350;12.410;2023-03-02T03:44:21;17.77;;;10.02;;
50717;SDS011;60557;51.350;12.410;2023-03-02T03:46:47;16.65;;;8.65;;
50717;SDS011;60557;51.350;12.410;2023-03-02T03:49:13;17.80;;;9.27;;
50717;SDS011;60557;51.350;12.410;2023-03-02T03:51:39;22.60;;;9.95;;
50717;SDS011;60557;51.350;12.410;2023-03-02T03:54:06;23.42;;;10.02;;
50717;SDS011;60557;51.350;12.410;2023-03-02T03:56:37;17.85;;;9.63;;
50717;SDS011;60557;51.350;12.410;2023-03-02T03:59:04;16.75;;;9.30;;
50717;SDS011;60557;51.350;12.410;2023-03-02T04:01:53;18.25;;;9.00;;
50717;SDS011;60557;51.350;12.410;2023-03-02T04:04:19;18.02;;;9.73;;
50717;SDS011;60557;51.350;12.410;2023-03-02T04:06:45;22.70;;;10.07;;
50717;SDS011;60557;51.350;12.410;2023-03-02T04:09:12;20.38;;;10.27;;
50717;SDS011;60557;51.350;12.410;2023-03-02T04:11:40;16.75;;;9.10;;
50717;SDS011;60557;51.350;12.410;2023-03-02T04:14:06;23.52;;;10.95;;
50717;SDS011;60557;51.350;12.410;2023-03-02T04:16:33;23.73;;;10.25;;
50717;SDS011;60557;51.350;12.410;2023-03-02T04:19:00;18.35;;;10.05;;
50717;SDS011;60557;51.350;12.410;2023-03-02T04:21:26;16.85;;;8.68;;
50717;SDS011;60557;51.350;12.410;2023-03-02T04:23:52;19.38;;;9.63;;
50717;SDS011;60557;51.350;12.410;2023-03-02T04:26:18;19.23;;;9.38;;
50717;SDS011;60557;51.350;12.410;2023-03-02T04:28:44;21.00;;;10.80;;
50717;SDS011;60557;51.350;12.410;2023-03-02T04:31:14;27.23;;;11.45;;
50717;SDS011;60557;51.350;12.410;2023-03-02T04:33:40;19.85;;;10.35;;
50717;SDS011;60557;51.350;12.410;2023-03-02T04:36:06;18.33;;;9.65;;
50717;SDS011;60557;51.350;12.410;2023-03-02T04:38:35;22.40;;;9.30;;
50717;SDS011;60557;51.350;12.410;2023-03-02T04:41:01;21.73;;;10.88;;
50717;SDS011;60557;51.350;12.410;2023-03-02T04:43:27;22.63;;;11.00;;
50717;SDS011;60557;51.350;12.410;2023-03-02T04:45:53;21.80;;;10.90;;
50717;SDS011;60557;51.350;12.410;2023-03-02T04:48:20;21.92;;;10.68;;
50717;SDS011;60557;51.350;12.410;2023-03-02T04:50:46;26.65;;;11.52;;
50717;SDS011;60557;51.350;12.410;2023-03-02T04:53:15;22.10;;;11.50;;
50717;SDS011;60557;51.350;12.410;2023-03-02T04:55:41;23.05;;;10.93;;
50717;SDS011;60557;51.350;12.410;2023-03-02T04:58:07;21.67;;;10.70;;
50717;SDS011;60557;51.350;12.410;2023-03-02T05:00:33;22.40;;;10.38;;
50717;SDS011;60557;51.350;12.410;2023-03-02T05:03:00;23.10;;;11.75;;
50717;SDS011;60557;51.350;12.410;2023-03-02T05:05:27;21.83;;;10.57;;
50717;SDS011;60557;51.350;12.410;2023-03-02T05:07:55;23.73;;;11.60;;
50717;SDS011;60557;51.350;12.410;2023-03-02T05:10:22;18.33;;;9.68;;
50717;SDS011;60557;51.350;12.410;2023-03-02T05:12:48;21.08;;;11.00;;
50717;SDS011;60557;51.350;12.410;2023-03-02T05:17:55;23.90;;;10.15;;
50717;SDS011;60557;51.350;12.410;2023-03-02T05:20:24;26.05;;;11.25;;
50717;SDS011;60557;51.350;12.410;2023-03-02T05:22:56;19.15;;;10.25;;
50717;SDS011;60557;51.350;12.410;2023-03-02T05:25:22;22.35;;;10.27;;
50717;SDS011;60557;51.350;12.410;2023-03-02T05:27:51;21.63;;;10.95;;
50717;SDS011;60557;51.350;12.410;2023-03-02T05:30:17;22.30;;;10.57;;
50717;SDS011;60557;51.350;12.410;2023-03-02T05:32:44;20.08;;;10.27;;
50717;SDS011;60557;51.350;12.410;2023-03-02T05:35:10;19.60;;;10.13;;
50717;SDS011;60557;51.350;12.410;2023-03-02T05:37:36;29.48;;;11.00;;
50717;SDS011;60557;51.350;12.410;2023-03-02T05:40:09;24.52;;;10.85;;
50717;SDS011;60557;51.350;12.410;2023-03-02T05:42:35;21.02;;;11.02;;
50717;SDS011;60557;51.350;12.410;2023-03-02T05:45:05;20.48;;;10.50;;
50717;SDS011;60557;51.350;12.410;2023-03-02T05:47:31;11.48;;;7.28;;
50717;SDS011;60557;51.350;12.410;2023-03-02T05:49:57;19.15;;;10.23;;
50717;SDS011;60557;51.350;12.410;2023-03-02T05:52:24;21.20;;;11.13;;
50717;SDS011;60557;51.350;12.410;2023-03-02T05:54:50;16.95;;;9.55;;
50717;SDS011;60557;51.350;12.410;2023-03-02T05:57:16;18.20;;;9.65;;
50717;SDS011;60557;51.350;12.410;2023-03-02T05:59:42;19.00;;;9.25;;
50717;SDS011;60557;51.350;12.410;2023-03-02T06:02:10;19.63;;;9.18;;
50717;SDS011;60557;51.350;12.410;2023-03-02T06:04:36;20.08;;;8.93;;
50717;SDS011;60557;51.350;12.410;2023-03-02T06:07:09;17.02;;;9.43;;
50717;SDS011;60557;51.350;12.410;2023-03-02T06:09:36;24.45;;;10.30;;
50717;SDS011;60557;51.350;12.410;2023-03-02T06:12:03;19.70;;;11.50;;
50717;SDS011;60557;51.350;12.410;2023-03-02T06:14:29;19.90;;;9.90;;
50717;SDS011;60557;51.350;12.410;2023-03-02T06:16:55;19.10;;;8.30;;
50717;SDS011;60557;51.350;12.410;2023-03-02T06:19:21;18.98;;;9.50;;
50717;SDS011;60557;51.350;12.410;2023-03-02T06:21:49;18.27;;;9.30;;
50717;SDS011;60557;51.350;12.410;2023-03-02T06:24:15;16.13;;;8.80;;
50717;SDS011;60557;51.350;12.410;2023-03-02T06:26:46;20.30;;;9.43;;
50717;SDS011;60557;51.350;12.410;2023-03-02T06:29:14;21.05;;;9.52;;
50717;SDS011;60557;51.350;12.410;2023-03-02T06:31:40;18.27;;;8.85;;
50717;SDS011;60557;51.350;12.410;2023-03-02T06:34:07;16.13;;;9.38;;
50717;SDS011;60557;51.350;12.410;2023-03-02T06:36:33;20.08;;;9.13;;
50717;SDS011;60557;51.350;12.410;2023-03-02T06:39:02;24.38;;;9.82;;
50717;SDS011;60557;51.350;12.410;2023-03-02T06:41:28;18.58;;;8.82;;
50717;SDS011;60557;51.350;12.410;2023-03-02T06:43:54;21.42;;;10.27;;
50717;SDS011;60557;51.350;12.410;2023-03-02T06:46:20;19.00;;;8.88;;
50717;SDS011;60557;51.350;12.410;2023-03-02T06:48:46;17.15;;;8.55;;
50717;SDS011;60557;51.350;12.410;2023-03-02T06:51:20;18.13;;;9.00;;
50717;SDS011;60557;51.350;12.410;2023-03-02T06:53:46;22.10;;;8.25;;
50717;SDS011;60557;51.350;12.410;2023-03-02T06:56:12;18.00;;;10.60;;
50717;SDS011;60557;51.350;12.410;2023-03-02T06:58:39;21.80;;;9.80;;
50717;SDS011;60557;51.350;12.410;2023-03-02T07:01:07;18.52;;;10.10;;
50717;SDS011;60557;51.350;12.410;2023-03-02T07:03:35;18.70;;;9.77;;
50717;SDS011;60557;51.350;12.410;2023-03-02T07:06:04;21.65;;;9.93;;
50717;SDS011;60557;51.350;12.410;2023-03-02T07:08:33;17.98;;;8.95;;
50717;SDS011;60557;51.350;12.410;2023-03-02T07:11:18;19.88;;;9.40;;
50717;SDS011;60557;51.350;12.410;2023-03-02T07:13:44;16.75;;;9.00;;
50717;SDS011;60557;51.350;12.410;2023-03-02T07:16:11;19.25;;;10.27;;
50717;SDS011;60557;51.350;12.410;2023-03-02T07:18:58;21.98;;;9.77;;
50717;SDS011;60557;51.350;12.410;2023-03-02T07:21:24;16.77;;;8.75;;
50717;SDS011;60557;51.350;12.410;2023-03-02T07:23:55;17.85;;;7.88;;
50717;SDS011;60557;51.350;12.410;2023-03-02T07:26:21;17.92;;;9.35;;
50717;SDS011;60557;51.350;12.410;2023-03-02T07:28:47;23.00;;;9.95;;
50717;SDS011;60557;51.350;12.410;2023-03-02T07:31:15;20.02;;;10.18;;
50717;SDS011;60557;51.350;12.410;2023-03-02T07:33:48;20.58;;;9.95;;
50717;SDS011;60557;51.350;12.410;2023-03-02T07:36:14;14.90;;;9.27;;
50717;SDS011;60557;51.350;12.410;2023-03-02T07:38:40;22.83;;;11.15;;
50717;SDS011;60557;51.350;12.410;2023-03-02T07:41:07;17.50;;;8.80;;
50717;SDS011;60557;51.350;12.410;2023-03-02T07:43:33;25.95;;;11.25;;
50717;SDS011;60557;51.350;12.410;2023-03-02T07:46:00;19.98;;;11.07;;
50717;SDS011;60557;51.350;12.410;2023-03-02T07:48:29;18.80;;;9.50;;
50717;SDS011;60557;51.350;12.410;2023-03-02T07:50:58;19.63;;;10.30;;
50717;SDS011;60557;51.350;12.410;2023-03-02T07:53:24;21.33;;;9.88;;
50717;SDS011;60557;51.350;12.410;2023-03-02T07:55:50;23.63;;;9.90;;
50717;SDS011;60557;51.350;12.410;2023-03-02T07:58:16;21.58;;;11.00;;
50717;SDS011;60557;51.350;12.410;2023-03-02T08:00:42;22.38;;;10.30;;
50717;SDS011;60557;51.350;12.410;2023-03-02T08:03:09;25.05;;;12.07;;
50717;SDS011;60557;51.350;12.410;2023-03-02T08:05:35;21.27;;;11.60;;
50717;SDS011;60557;51.350;12.410;2023-03-02T08:08:01;21.67;;;10.90;;
50717;SDS011;60557;51.350;12.410;2023-03-02T08:10:34;19.77;;;10.98;;
50717;SDS011;60557;51.350;12.410;2023-03-02T08:13:07;22.88;;;10.25;;
50717;SDS011;60557;51.350;12.410;2023-03-02T08:15:45;26.10;;;11.60;;
50717;SDS011;60557;51.350;12.410;2023-03-02T08:18:11;26.58;;;9.65;;
50717;SDS011;60557;51.350;12.410;2023-03-02T08:20:39;18.63;;;10.38;;
50717;SDS011;60557;51.350;12.410;2023-03-02T08:23:05;21.75;;;10.77;;
50717;SDS011;60557;51.350;12.410;2023-03-02T08:25:31;28.27;;;11.43;;
50717;SDS011;60557;51.350;12.410;2023-03-02T08:27:57;20.40;;;10.65;;
50717;SDS011;60557;51.350;12.410;2023-03-02T08:30:23;26.45;;;12.23;;
50717;SDS011;60557;51.350;12.410;2023-03-02T08:32:49;22.30;;;11.40;;
50717;SDS011;60557;51.350;12.410;2023-03-02T08:35:18;19.45;;;10.70;;
50717;SDS011;60557;51.350;12.410;2023-03-02T08:37:46;22.15;;;10.93;;
50717;SDS011;60557;51.350;12.410;2023-03-02T08:40:12;26.55;;;12.45;;
50717;SDS011;60557;51.350;12.410;2023-03-02T08:42:38;21.77;;;11.18;;
50717;SDS011;60557;51.350;12.410;2023-03-02T08:45:05;23.92;;;10.50;;
50717;SDS011;60557;51.350;12.410;2023-03-02T08:47:33;18.90;;;11.05;;
50717;SDS011;60557;51.350;12.410;2023-03-02T08:49:59;24.15;;;11.93;;
50717;SDS011;60557;51.350;12.410;2023-03-02T08:52:37;20.42;;;10.82;;
50717;SDS011;60557;51.350;12.410;2023-03-02T08:55:06;20.67;;;11.30;;
50717;SDS011;60557;51.350;12.410;2023-03-02T08:57:32;20.70;;;10.55;;
50717;SDS011;60557;51.350;12.410;2023-03-02T08:59:58;20.33;;;10.90;;
50717;SDS011;60557;51.350;12.410;2023-03-02T09:02:27;22.25;;;11.35;;
50717;SDS011;60557;51.350;12.410;2023-03-02T09:04:53;21.38;;;11.70;;
50717;SDS011;60557;51.350;12.410;2023-03-02T09:07:19;26.48;;;11.23;;
50717;SDS011;60557;51.350;12.410;2023-03-02T09:09:55;19.35;;;10.93;;
50717;SDS011;60557;51.350;12.410;2023-03-02T09:12:21;22.38;;;12.43;;
50717;SDS011;60557;51.350;12.410;2023-03-02T09:14:47;19.70;;;11.05;;
50717;SDS011;60557;51.350;12.410;2023-03-02T09:17:13;19.70;;;11.05;;
50717;SDS011;60557;51.350;12.410;2023-03-02T09:19:44;23.10;;;11.80;;
50717;SDS011;60557;51.350;12.410;2023-03-02T09:22:10;23.05;;;11.23;;
50717;SDS011;60557;51.350;12.410;2023-03-02T09:24:36;25.27;;;12.38;;
50717;SDS011;60557;51.350;12.410;2023-03-02T09:27:02;21.65;;;11.75;;
50717;SDS011;60557;51.350;12.410;2023-03-02T09:29:28;24.60;;;12.25;;
50717;SDS011;60557;51.350;12.410;2023-03-02T09:31:55;25.33;;;11.18;;
50717;SDS011;60557;51.350;12.410;2023-03-02T09:34:21;22.25;;;11.75;;
50717;SDS011;60557;51.350;12.410;2023-03-02T09:36:51;25.10;;;13.32;;
50717;SDS011;60557;51.350;12.410;2023-03-02T09:39:17;23.27;;;11.70;;
50717;SDS011;60557;51.350;12.410;2023-03-02T09:41:55;20.92;;;12.15;;
50717;SDS011;60557;51.350;12.410;2023-03-02T09:46:55;21.20;;;12.55;;
50717;SDS011;60557;51.350;12.410;2023-03-02T09:54:19;21.77;;;12.25;;
50717;SDS011;60557;51.350;12.410;2023-03-02T09:56:47;23.80;;;13.38;;
50717;SDS011;60557;51.350;12.410;2023-03-02T09:59:18;22.08;;;11.55;;
50717;SDS011;60557;51.350;12.410;2023-03-02T10:01:52;20.90;;;11.90;;
50717;SDS011;60557;51.350;12.410;2023-03-02T10:04:35;22.55;;;12.25;;
50717;SDS011;60557;51.350;12.410;2023-03-02T10:07:13;23.60;;;12.85;;
50717;SDS011;60557;51.350;12.410;2023-03-02T10:09:40;24.70;;;12.70;;
50717;SDS011;60557;51.350;12.410;2023-03-02T10:14:43;25.20;;;11.90;;
50717;SDS011;60557;51.350;12.410;2023-03-02T10:19:55;26.42;;;12.45;;
50717;SDS011;60557;51.350;12.410;2023-03-02T10:22:24;19.13;;;10.82;;
50717;SDS011;60557;51.350;12.410;2023-03-02T10:27:46;24.58;;;13.25;;
50717;SDS011;60557;51.350;12.410;2023-03-02T10:30:29;22.95;;;12.55;;
50717;SDS011;60557;51.350;12.410;2023-03-02T10:32:57;23.70;;;12.07;;
50717;SDS011;60557;51.350;12.410;2023-03-02T10:35:25;24.05;;;13.43;;
50717;SDS011;60557;51.350;12.410;2023-03-02T10:37:59;19.35;;;11.45;;
50717;SDS011;60557;51.350;12.410;2023-03-02T10:43:19;18.35;;;11.60;;
50717;SDS011;60557;51.350;12.410;2023-03-02T10:45:56;23.40;;;11.98;;
50717;SDS011;60557;51.350;12.410;2023-03-02T10:48:22;19.55;;;12.10;;
50717;SDS011;60557;51.350;12.410;2023-03-02T10:50:52;19.90;;;11.32;;
50717;SDS011;60557;51.350;12.410;2023-03-02T10:53:20;23.17;;;12.65;;
50717;SDS011;60557;51.350;12.410;2023-03-02T10:55:49;19.35;;;11.38;;
50717;SDS011;60557;51.350;12.410;2023-03-02T11:00:42;23.38;;;12.85;;
50717;SDS011;60557;51.350;12.410;2023-03-02T11:03:21;22.25;;;11.07;;
50717;SDS011;60557;51.350;12.410;2023-03-02T11:05:49;22.00;;;12.70;;
50717;SDS011;60557;51.350;12.410;2023-03-02T11:08:17;21.08;;;11.20;;
50717;SDS011;60557;51.350;12.410;2023-03-02T11:13:22;18.95;;;11.77;;
50717;SDS011;60557;51.350;12.410;2023-03-02T11:15:51;27.52;;;12.35;;
50717;SDS011;60557;51.350;12.410;2023-03-02T11:18:25;18.98;;;11.88;;
50717;SDS011;60557;51.350;12.410;2023-03-02T11:20:54;19.13;;;11.52;;
50717;SDS011;60557;51.350;12.410;2023-03-02T11:23:32;18.98;;;11.20;;
50717;SDS011;60557;51.350;12.410;2023-03-02T11:26:22;20.35;;;12.85;;
50717;SDS011;60557;51.350;12.410;2023-03-02T11:31:26;19.40;;;12.63;;
50717;SDS011;60557;51.350;12.410;2023-03-02T11:36:27;19.83;;;11.98;;
50717;SDS011;60557;51.350;12.410;2023-03-02T11:38:58;17.65;;;11.70;;
50717;SDS011;60557;51.350;12.410;2023-03-02T11:43:52;22.25;;;12.27;;
50717;SDS011;60557;51.350;12.410;2023-03-02T11:46:23;19.65;;;12.02;;
50717;SDS011;60557;51.350;12.410;2023-03-02T11:48:51;17.85;;;11.27;;
50717;SDS011;60557;51.350;12.410;2023-03-02T11:51:26;18.42;;;12.15;;
50717;SDS011;60557;51.350;12.410;2023-03-02T11:53:55;17.65;;;11.80;;
50717;SDS011;60557;51.350;12.410;2023-03-02T11:56:23;22.23;;;12.15;;
50717;SDS011;60557;51.350;12.410;2023-03-02T11:58:54;17.50;;;11.50;;
50717;SDS011;60557;51.350;12.410;2023-03-02T12:01:22;20.70;;;11.82;;
50717;SDS011;60557;51.350;12.410;2023-03-02T12:03:49;14.95;;;10.77;;
50717;SDS011;60557;51.350;12.410;2023-03-02T12:08:42;14.90;;;10.13;;
50717;SDS011;60557;51.350;12.410;2023-03-02T12:13:45;14.23;;;10.18;;
50717;SDS011;60557;51.350;12.410;2023-03-02T12:16:18;15.25;;;9.50;;
50717;SDS011;60557;51.350;12.410;2023-03-02T12:24:00;16.08;;;9.73;;
50717;SDS011;60557;51.350;12.410;2023-03-02T12:26:31;14.00;;;9.38;;
50717;SDS011;60557;51.350;12.410;2023-03-02T12:31:50;16.85;;;9.70;;
50717;SDS011;60557;51.350;12.410;2023-03-02T12:36:50;15.60;;;8.55;;
50717;SDS011;60557;51.350;12.410;2023-03-02T12:39:28;13.40;;;9.00;;
50717;SDS011;60557;51.350;12.410;2023-03-02T12:44:53;14.68;;;9.00;;
50717;SDS011;60557;51.350;12.410;2023-03-02T12:47:23;13.65;;;8.68;;
50717;SDS011;60557;51.350;12.410;2023-03-02T12:49:56;14.00;;;9.45;;
50717;SDS011;60557;51.350;12.410;2023-03-02T12:52:34;14.40;;;9.35;;
50717;SDS011;60557;51.350;12.410;2023-03-02T12:57:29;13.82;;;8.88;;
50717;SDS011;60557;51.350;12.410;2023-03-02T12:59:57;12.98;;;8.50;;
50717;SDS011;60557;51.350;12.410;2023-03-02T13:02:25;13.25;;;8.45;;
50717;SDS011;60557;51.350;12.410;2023-03-02T13:04:53;12.70;;;8.80;;
50717;SDS011;60557;51.350;12.410;2023-03-02T13:07:22;11.32;;;7.82;;
50717;SDS011;60557;51.350;12.410;2023-03-02T13:09:49;13.82;;;8.60;;
50717;SDS011;60557;51.350;12.410;2023-03-02T13:12:35;11.35;;;7.45;;
50717;SDS011;60557;51.350;12.410;2023-03-02T13:15:02;10.55;;;7.60;;
50717;SDS011;60557;51.350;12.410;2023-03-02T13:17:29;12.82;;;7.97;;
50717;SDS011;60557;51.350;12.410;2023-03-02T13:19:57;11.02;;;7.90;;
50717;SDS011;60557;51.350;12.410;2023-03-02T13:22:24;12.48;;;8.38;;
50717;SDS011;60557;51.350;12.410;2023-03-02T13:27:23;15.48;;;9.82;;
50717;SDS011;60557;51.350;12.410;2023-03-02T13:29:50;10.63;;;7.38;;
50717;SDS011;60557;51.350;12.410;2023-03-02T13:32:24;12.25;;;8.35;;
50717;SDS011;60557;51.350;12.410;2023-03-02T13:34:58;11.23;;;7.63;;
50717;SDS011;60557;51.350;12.410;2023-03-02T13:37:31;9.90;;;7.55;;
50717;SDS011;60557;51.350;12.410;2023-03-02T13:39:58;12.73;;;8.15;;
50717;SDS011;60557;51.350;12.410;2023-03-02T13:42:28;12.85;;;7.95;;
50717;SDS011;60557;51.350;12.410;2023-03-02T13:44:54;13.65;;;7.03;;
50717;SDS011;60557;51.350;12.410;2023-03-02T13:47:22;12.98;;;8.00;;
50717;SDS011;60557;51.350;12.410;2023-03-02T13:49:48;11.75;;;6.85;;
50717;SDS011;60557;51.350;12.410;2023-03-02T13:54:47;12.23;;;7.25;;
50717;SDS011;60557;51.350;12.410;2023-03-02T13:57:17;9.88;;;7.40;;
50717;SDS011;60557;51.350;12.410;2023-03-02T13:59:48;12.25;;;8.23;;
50717;SDS011;60557;51.350;12.410;2023-03-02T14:04:47;12.10;;;7.70;;
50717;SDS011;60557;51.350;12.410;2023-03-02T14:07:15;10.15;;;7.03;;
50717;SDS011;60557;51.350;12.410;2023-03-02T14:09:43;9.60;;;7.32;;
50717;SDS011;60557;51.350;12.410;2023-03-02T14:12:21;8.88;;;6.95;;
50717;SDS011;60557;51.350;12.410;2023-03-02T14:14:48;11.32;;;8.35;;
50717;SDS011;60557;51.350;12.410;2023-03-02T14:17:15;11.98;;;7.32;;
50717;SDS011;60557;51.350;12.410;2023-03-02T14:19:45;12.55;;;7.20;;
50717;SDS011;60557;51.350;12.410;2023-03-02T14:22:16;11.30;;;7.35;;
50717;SDS011;60557;51.350;12.410;2023-03-02T14:24:42;12.18;;;7.10;;
50717;SDS011;60557;51.350;12.410;2023-03-02T14:27:10;9.38;;;6.35;;
50717;SDS011;60557;51.350;12.410;2023-03-02T14:29:36;8.73;;;6.05;;
50717;SDS011;60557;51.350;12.410;2023-03-02T14:32:03;8.18;;;6.45;;
50717;SDS011;60557;51.350;12.410;2023-03-02T14:34:33;11.48;;;7.03;;
50717;SDS011;60557;51.350;12.410;2023-03-02T14:37:03;9.07;;;7.00;;
50717;SDS011;60557;51.350;12.410;2023-03-02T14:41:56;10.98;;;6.68;;
50717;SDS011;60557;51.350;12.410;2023-03-02T14:44:22;10.55;;;6.82;;
50717;SDS011;60557;51.350;12.410;2023-03-02T14:46:49;14.43;;;6.72;;
50717;SDS011;60557;51.350;12.410;2023-03-02T14:49:20;10.30;;;6.80;;
50717;SDS011;60557;51.350;12.410;2023-03-02T14:52:03;11.02;;;6.55;;
50717;SDS011;60557;51.350;12.410;2023-03-02T14:54:42;10.55;;;7.10;;
50717;SDS011;60557;51.350;12.410;2023-03-02T14:57:16;11.73;;;7.00;;
50717;SDS011;60557;51.350;12.410;2023-03-02T14:59:43;10.63;;;7.32;;
50717;SDS011;60557;51.350;12.410;2023-03-02T15:02:13;10.65;;;6.80;;
50717;SDS011;60557;51.350;12.410;2023-03-02T15:04:43;11.23;;;6.50;;
50717;SDS011;60557;51.350;12.410;2023-03-02T15:07:10;10.43;;;6.75;;
50717;SDS011;60557;51.350;12.410;2023-03-02T15:09:39;12.40;;;7.47;;
50717;SDS011;60557;51.350;12.410;2023-03-02T15:12:05;10.18;;;6.75;;
50717;SDS011;60557;51.350;12.410;2023-03-02T15:14:31;10.52;;;6.82;;
50717;SDS011;60557;51.350;12.410;2023-03-02T15:17:01;11.38;;;6.97;;
50717;SDS011;60557;51.350;12.410;2023-03-02T15:19:27;13.40;;;6.90;;
50717;SDS011;60557;51.350;12.410;2023-03-02T15:21:53;8.82;;;6.53;;
50717;SDS011;60557;51.350;12.410;2023-03-02T15:24:22;9.30;;;6.45;;
50717;SDS011;60557;51.350;12.410;2023-03-02T15:26:49;9.10;;;6.13;;
50717;SDS011;60557;51.350;12.410;2023-03-02T15:29:18;10.98;;;5.68;;
50717;SDS011;60557;51.350;12.410;2023-03-02T15:31:44;9.35;;;6.53;;
50717;SDS011;60557;51.350;12.410;2023-03-02T15:34:11;12.57;;;6.47;;
50717;SDS011;60557;51.350;12.410;2023-03-02T15:36:42;12.68;;;6.65;;
50717;SDS011;60557;51.350;12.410;2023-03-02T15:39:12;12.27;;;6.45;;
50717;SDS011;60557;51.350;12.410;2023-03-02T15:41:38;9.50;;;6.72;;